createdAt,value
2022-07-27T00:04:06.828Z,18.36
2022-07-27T00:09:09.095Z,18.40
2022-07-27T00:14:11.039Z,18.26
2022-07-27T00:19:13.267Z,18.11
2022-07-27T00:24:15.250Z,17.91
2022-07-27T00:29:17.022Z,17.81
2022-07-27T00:34:18.739Z,17.91
2022-07-27T00:39:20.457Z,17.93
2022-07-27T00:44:27.494Z,18.04
2022-07-27T00:49:29.232Z,18.03
2022-07-27T00:54:31.346Z,17.97
2022-07-27T00:59:33.030Z,18.02
2022-07-27T01:04:35.330Z,17.90
2022-07-27T01:10:00.489Z,17.76
2022-07-27T01:15:02.281Z,17.65
2022-07-27T01:20:05.047Z,17.80
2022-07-27T01:25:06.811Z,17.70
2022-07-27T01:30:26.447Z,17.55
2022-07-27T01:35:28.251Z,17.19
2022-07-27T01:40:30.728Z,16.86
2022-07-27T01:45:32.729Z,16.80
2022-07-27T01:50:34.549Z,17.12
2022-07-27T01:55:39.063Z,17.39
2022-07-27T02:00:41.861Z,17.47
2022-07-27T02:05:43.990Z,17.59
2022-07-27T02:11:04.278Z,17.60
2022-07-27T02:16:12.409Z,17.57
2022-07-27T02:21:19.084Z,17.65
2022-07-27T02:26:20.945Z,17.50
2022-07-27T02:31:22.905Z,17.46
2022-07-27T02:36:24.658Z,17.27
2022-07-27T02:41:26.410Z,17.14
2022-07-27T02:46:28.205Z,17.12
2022-07-27T02:51:30.098Z,17.23
2022-07-27T02:56:31.857Z,17.27
2022-07-27T03:01:33.723Z,17.51
2022-07-27T03:06:35.478Z,17.69
2022-07-27T03:11:37.471Z,17.95
2022-07-27T03:16:39.509Z,17.94
2022-07-27T03:21:41.207Z,17.64
2022-07-27T03:26:42.907Z,17.95
2022-07-27T03:31:45.497Z,18.26
2022-07-27T03:36:48.966Z,18.27
2022-07-27T03:41:50.687Z,18.30
2022-07-27T03:46:52.439Z,18.35
2022-07-27T03:51:54.246Z,18.42
2022-07-27T03:56:56.021Z,18.45
2022-07-27T04:01:57.961Z,18.55
2022-07-27T04:07:00.642Z,18.63
2022-07-27T04:12:02.344Z,18.56
2022-07-27T04:17:04.817Z,18.39
2022-07-27T04:22:06.729Z,18.32
2022-07-27T04:27:08.406Z,18.30
2022-07-27T04:32:10.179Z,18.13
2022-07-27T04:37:11.871Z,18.25
2022-07-27T04:42:13.532Z,18.47
2022-07-27T04:47:15.237Z,18.51
2022-07-27T04:52:17.028Z,18.64
2022-07-27T04:57:20.815Z,18.79
2022-07-27T05:02:22.525Z,18.91
2022-07-27T05:07:24.241Z,19.07
2022-07-27T05:12:25.974Z,18.87
2022-07-27T05:17:27.984Z,19.02
2022-07-27T05:22:29.747Z,19.13
2022-07-27T05:27:31.966Z,19.23
2022-07-27T05:32:34.048Z,19.35
2022-07-27T05:37:35.755Z,19.47
2022-07-27T05:42:37.575Z,19.46
2022-07-27T05:47:39.853Z,19.46
2022-07-27T05:52:43.183Z,19.57
2022-07-27T05:57:45.051Z,19.47
2022-07-27T06:02:46.968Z,19.45
2022-07-27T06:08:00.855Z,19.59
2022-07-27T06:13:05.069Z,19.64
2022-07-27T06:18:09.101Z,19.69
2022-07-27T06:23:11.049Z,19.63
2022-07-27T06:28:13.112Z,19.61
2022-07-27T06:33:15.591Z,19.70
2022-07-27T06:38:19.195Z,19.91
2022-07-27T06:43:25.127Z,20.09
2022-07-27T06:48:27.217Z,20.15
2022-07-27T06:53:28.928Z,20.28
2022-07-27T06:58:37.932Z,20.44
2022-07-27T07:03:39.751Z,20.50
2022-07-27T07:08:41.796Z,20.57
2022-07-27T07:13:45.186Z,20.70
2022-07-27T07:18:52.041Z,20.71
2022-07-27T07:23:54.430Z,20.78
2022-07-27T07:28:56.134Z,20.92
2022-07-27T07:33:58.735Z,21.18
2022-07-27T07:39:00.858Z,21.20
2022-07-27T07:44:02.518Z,21.25
2022-07-27T07:49:05.450Z,21.49
2022-07-27T07:54:07.241Z,21.78
2022-07-27T07:59:09.263Z,21.91
2022-07-27T08:04:11.437Z,21.99
2022-07-27T08:09:14.978Z,22.08
2022-07-27T08:14:16.974Z,22.23
2022-07-27T08:19:18.787Z,22.31
2022-07-27T08:24:20.525Z,22.40
2022-07-27T08:29:23.144Z,22.73
2022-07-27T08:34:25.328Z,22.90
2022-07-27T08:40:19.912Z,23.01
2022-07-27T08:44:48.925Z,23.20
2022-07-27T08:49:50.693Z,23.32
2022-07-27T08:54:52.507Z,23.41
2022-07-27T08:59:56.821Z,23.63
2022-07-27T09:04:58.683Z,23.81
2022-07-27T09:10:00.632Z,23.87
2022-07-27T09:15:11.936Z,24.13
2022-07-27T09:20:18.578Z,24.44
2022-07-27T09:25:52.162Z,24.51
2022-07-27T09:30:47.649Z,24.70
2022-07-27T09:35:58.828Z,24.77
2022-07-27T09:41:03.232Z,24.86
2022-07-27T09:46:07.827Z,25.02
2022-07-27T09:56:34.511Z,25.48
2022-07-27T10:01:47.791Z,25.52
2022-07-27T10:07:02.640Z,25.63
2022-07-27T10:12:05.194Z,25.77
2022-07-27T10:17:07.852Z,26.10
2022-07-27T10:22:09.614Z,26.17
2022-07-27T10:27:20.034Z,25.91
2022-07-27T10:32:31.703Z,26.09
2022-07-27T10:37:34.704Z,26.29
2022-07-27T10:42:36.546Z,26.24
2022-07-27T10:47:50.051Z,26.20
2022-07-27T10:53:07.863Z,26.08
2022-07-27T10:58:13.027Z,25.92
2022-07-27T11:03:27.088Z,25.85
2022-07-27T11:08:46.662Z,25.70
2022-07-27T11:13:51.821Z,25.83
2022-07-27T11:19:02.454Z,26.00
2022-07-27T11:24:12.161Z,26.29
2022-07-27T11:29:15.903Z,26.36
2022-07-27T11:34:20.104Z,26.52
2022-07-27T11:44:46.610Z,26.77
2022-07-27T11:49:48.657Z,27.21
2022-07-27T11:54:52.607Z,27.39
2022-07-27T11:59:54.385Z,27.00
2022-07-27T12:05:02.390Z,26.63
2022-07-27T12:10:06.914Z,26.53
2022-07-27T12:15:44.479Z,26.83
2022-07-27T12:20:38.792Z,26.73
2022-07-27T12:25:41.315Z,26.85
2022-07-27T12:30:45.765Z,26.83
2022-07-27T12:35:47.713Z,26.56
2022-07-27T12:40:55.450Z,26.55
2022-07-27T12:46:11.446Z,26.55
2022-07-27T12:51:13.322Z,26.55
2022-07-27T12:56:15.082Z,26.73
2022-07-27T13:01:29.187Z,27.09
2022-07-27T13:06:31.199Z,27.32
2022-07-27T13:11:32.845Z,27.58
2022-07-27T13:16:34.605Z,27.42
2022-07-27T13:21:36.386Z,27.03
2022-07-27T13:26:38.358Z,26.93
2022-07-27T13:31:48.439Z,27.38
2022-07-27T13:36:53.623Z,27.41
2022-07-27T13:41:56.620Z,27.27
2022-07-27T13:46:58.875Z,27.05
2022-07-27T13:52:03.620Z,26.93
2022-07-27T13:57:05.412Z,26.79
2022-07-27T14:02:07.236Z,26.62
2022-07-27T14:07:09.882Z,26.55
2022-07-27T14:12:11.986Z,26.49
2022-07-27T14:17:13.846Z,26.48
2022-07-27T14:22:15.573Z,26.42
2022-07-27T14:27:17.286Z,26.57
2022-07-27T14:32:19.024Z,26.67
2022-07-27T14:37:20.750Z,26.89
2022-07-27T14:42:24.038Z,26.84
2022-07-27T14:47:25.779Z,26.46
2022-07-27T14:52:27.518Z,26.50
2022-07-27T14:57:29.561Z,26.45
2022-07-27T15:02:31.336Z,26.38
2022-07-27T15:07:34.171Z,26.32
2022-07-27T15:12:38.079Z,26.25
2022-07-27T15:17:39.982Z,26.18
2022-07-27T15:22:41.862Z,26.14
2022-07-27T15:27:44.159Z,26.18
2022-07-27T15:32:45.794Z,26.22
2022-07-27T15:37:54.207Z,26.34
2022-07-27T15:42:56.630Z,26.38
2022-07-27T15:47:58.479Z,26.49
2022-07-27T15:53:00.271Z,26.50
2022-07-27T15:58:01.942Z,26.39
2022-07-27T16:03:04.589Z,26.20
2022-07-27T16:08:09.391Z,26.35
2022-07-27T16:13:13.954Z,26.44
2022-07-27T16:18:16.408Z,26.25
2022-07-27T16:23:21.595Z,26.02
2022-07-27T16:28:25.892Z,26.00
2022-07-27T16:33:27.641Z,25.95
2022-07-27T16:38:29.474Z,25.87
2022-07-27T16:43:37.354Z,25.92
2022-07-27T16:48:42.352Z,26.29
2022-07-27T16:53:47.957Z,26.63
2022-07-27T16:58:50.025Z,26.40
2022-07-27T17:03:51.687Z,26.70
2022-07-27T17:08:54.057Z,26.72
2022-07-27T17:13:59.317Z,26.26
2022-07-27T17:19:01.456Z,26.08
2022-07-27T17:24:03.457Z,25.68
2022-07-27T17:29:05.666Z,25.35
2022-07-27T17:34:07.533Z,25.12
2022-07-27T17:39:09.685Z,25.00
2022-07-27T17:44:13.625Z,24.90
2022-07-27T17:49:15.850Z,24.95
2022-07-27T17:54:17.875Z,24.83
2022-07-27T17:59:37.238Z,24.68
2022-07-27T18:04:39.935Z,24.58
2022-07-27T18:09:42.522Z,24.42
2022-07-27T18:15:04.059Z,24.43
2022-07-27T18:20:10.984Z,24.31
2022-07-27T18:25:12.726Z,24.21
2022-07-27T18:30:14.529Z,24.12
2022-07-27T18:35:16.272Z,24.06
2022-07-27T18:40:18.359Z,23.93
2022-07-27T18:45:20.104Z,23.78
2022-07-27T18:50:22.290Z,23.66
2022-07-27T18:55:25.957Z,23.57
2022-07-27T19:00:28.021Z,23.35
2022-07-27T19:05:40.704Z,23.21
2022-07-27T19:10:44.481Z,23.18
2022-07-27T19:15:46.183Z,23.07
2022-07-27T19:20:47.928Z,22.89
2022-07-27T19:25:49.651Z,22.70
2022-07-27T19:30:51.477Z,22.55
2022-07-27T19:35:55.601Z,22.45
2022-07-27T19:40:57.393Z,22.33
2022-07-27T19:45:59.500Z,22.20
2022-07-27T19:51:06.627Z,22.12
2022-07-27T19:56:09.196Z,21.99
2022-07-27T20:01:13.370Z,22.02
2022-07-27T20:06:16.332Z,21.86
2022-07-27T20:11:18.126Z,21.67
2022-07-27T20:16:19.882Z,21.22
2022-07-27T20:21:23.035Z,20.84
2022-07-27T20:26:25.433Z,20.79
2022-07-27T20:31:28.474Z,20.76
2022-07-27T20:36:30.229Z,20.98
2022-07-27T20:41:32.814Z,20.91
2022-07-27T20:46:34.737Z,20.59
2022-07-27T20:51:36.548Z,20.52
2022-07-27T20:56:38.347Z,20.36
2022-07-27T21:01:40.333Z,20.15
2022-07-27T21:06:42.097Z,20.16
2022-07-27T21:11:44.221Z,20.25
2022-07-27T21:16:45.997Z,20.00
2022-07-27T21:21:48.501Z,19.86
2022-07-27T21:26:52.189Z,19.77
2022-07-27T21:31:53.903Z,19.79
2022-07-27T21:36:55.747Z,19.71
2022-07-27T21:42:01.945Z,19.53
2022-07-27T21:47:11.476Z,19.54
2022-07-27T21:52:15.625Z,19.66
2022-07-27T21:57:17.434Z,19.73
2022-07-27T22:02:19.411Z,19.84
2022-07-27T22:07:22.186Z,19.84
2022-07-27T22:12:24.004Z,19.71
2022-07-27T22:17:25.756Z,19.61
2022-07-27T22:22:27.699Z,19.38
2022-07-27T22:27:29.533Z,19.43
2022-07-27T22:32:31.385Z,19.28
2022-07-27T22:37:33.090Z,18.86
2022-07-27T22:42:34.810Z,18.47
2022-07-27T22:47:37.174Z,18.31
2022-07-27T22:52:39.998Z,18.18
2022-07-27T22:57:42.044Z,18.34
2022-07-27T23:02:43.884Z,18.42
2022-07-27T23:07:45.621Z,18.46
2022-07-27T23:12:47.480Z,18.39
2022-07-27T23:17:49.203Z,18.45
2022-07-27T23:22:50.958Z,18.66
2022-07-27T23:27:53.038Z,18.84
2022-07-27T23:32:56.399Z,18.75
2022-07-27T23:37:58.668Z,18.57
2022-07-27T23:43:00.565Z,18.43
2022-07-27T23:48:02.539Z,18.43
2022-07-27T23:53:04.232Z,18.53
2022-07-27T23:58:09.006Z,18.58
